Time;durP1;ratioP1;P1;durP2;ratioP2;P2;SDS_P1;SDS_P2;PMS_P1;PMS_P2;Temp;Humidity;BMP_temperature;BMP_pressure;BME280_temperature;BME280_humidity;BME280_pressure;Samples;Min_cycle;Max_cycle;Signal;HPM_P1;HPM_P2
2022/01/21 00:16:34;;;;;;;;;;;;;;;;;;;;;
2022/01/21 00:35:35;;;;;;;;;;;;;;;;;;;;;
2022/01/21 00:38:59;;;;;;;;;;;;;;;;;;;;;
2022/01/21 00:48:58;;;;;;;;;;;;;;;;;;;;;
2022/01/21 00:55:24;;;;;;;772.87;700.87;;;0.60;99.90;;;;;;4904661;29;20463;-82
2022/01/21 01:04:51;;;;;;;;;;;;;;;;;;;;;
2022/01/21 01:27:36;;;;;;;755.17;683.70;;;0.40;99.90;;;;;;4868852;29;20215;-81
2022/01/21 01:29:57;;;;;;;;;;;;;;;;;;;;;
2022/01/21 01:30:54;;;;;;;779.20;707.90;;;0.50;99.90;;;;;;4855370;29;20453;-81
2022/01/21 01:34:08;;;;;;;788.87;716.87;;;0.60;99.90;;;;;;4901605;29;20465;-82
2022/01/21 01:53:40;;;;;;;;;;;;;;;;;;;;;
2022/01/21 02:55:01;;;;;;;;;;;;;;;;;;;;;
2022/01/21 03:14:53;;;;;;;;;;;;;;;;;;;;;
2022/01/21 03:18:03;;;;;;;775.17;708.97;;;1.30;99.90;;;;;;4888015;29;20894;-82
2022/01/21 03:36:55;;;;;;;772.40;707.43;;;1.10;99.90;;;;;;4942220;29;21140;-82
2022/01/21 03:57:07;;;;;;;;;;;;;;;;;;;;;
2022/01/21 04:03:32;;;;;;;769.70;699.60;;;1.00;99.90;;;;;;4907133;29;20461;-82
2022/01/21 04:06:42;;;;;;;;;;;;;;;;;;;;;
2022/01/21 04:10:10;;;;;;;773.37;707.37;;;1.00;99.90;;;;;;4883014;29;20544;-81
2022/01/21 04:16:20;;;;;;;764.70;703.10;;;1.30;99.90;;;;;;4917653;28;20453;-82
2022/01/21 04:21:46;;;;;;;762.53;703.83;;;1.40;99.90;;;;;;4962990;28;20466;-82
2022/01/21 04:24:15;;;;;;;758.00;697.73;;;1.40;99.90;;;;;;4980956;28;20465;-82
2022/01/21 04:26:41;;;;;;;776.77;717.70;;;1.30;99.90;;;;;;4983183;28;20447;-82
2022/01/21 04:29:08;;;;;;;768.43;710.90;;;1.40;99.90;;;;;;4981521;28;20486;-82
2022/01/21 04:31:35;;;;;;;750.07;692.87;;;1.40;99.90;;;;;;4982800;28;20546;-82
2022/01/21 04:34:01;;;;;;;751.43;694.73;;;1.40;99.90;;;;;;4985526;28;20458;-81
2022/01/21 04:36:28;;;;;;;758.60;700.80;;;1.30;99.90;;;;;;4987128;28;20470;-82
2022/01/21 04:38:59;;;;;;;740.23;681.93;;;1.40;99.90;;;;;;4989235;28;20471;-82
2022/01/21 04:41:42;;;;;;;730.77;672.27;;;1.30;99.90;;;;;;4986595;28;20490;-82
2022/01/21 04:49:37;;;;;;;725.77;666.37;;;1.40;99.90;;;;;;4985569;28;20543;-82
2022/01/21 04:52:05;;;;;;;731.07;670.50;;;1.40;99.90;;;;;;4983363;28;20459;-82
2022/01/21 04:54:35;;;;;;;725.20;666.30;;;1.40;99.90;;;;;;4981171;28;20450;-82
2022/01/21 04:57:03;;;;;;;730.23;671.07;;;1.40;99.90;;;;;;4985181;28;20451;-82
2022/01/21 04:59:30;;;;;;;722.03;663.87;;;1.40;99.90;;;;;;4984555;28;20482;-82
2022/01/21 05:01:57;;;;;;;721.43;662.67;;;1.40;99.90;;;;;;4984834;28;20451;-82
2022/01/21 05:04:24;;;;;;;724.70;666.37;;;1.30;99.90;;;;;;4984318;28;20517;-82
2022/01/21 05:06:52;;;;;;;731.63;674.43;;;1.30;99.90;;;;;;4981990;28;20458;-82
2022/01/21 05:09:22;;;;;;;734.27;676.97;;;1.30;99.90;;;;;;4984913;28;21051;-82
2022/01/21 05:11:52;;;;;;;726.20;668.70;;;1.30;99.90;;;;;;4986133;28;20526;-82
2022/01/21 05:14:22;;;;;;;737.40;680.93;;;1.30;99.90;;;;;;4986160;28;20455;-82
2022/01/21 05:16:51;;;;;;;735.53;679.23;;;1.40;99.90;;;;;;4983663;28;20443;-82
2022/01/21 05:19:19;;;;;;;749.13;690.83;;;1.30;99.90;;;;;;4986092;28;20475;-81
2022/01/21 05:21:48;;;;;;;732.20;675.97;;;1.40;99.90;;;;;;4984613;28;20466;-82
2022/01/21 05:24:17;;;;;;;742.40;686.37;;;1.40;99.90;;;;;;4982689;28;20458;-81
2022/01/21 05:26:52;;;;;;;732.00;677.83;;;1.30;99.90;;;;;;4981849;28;20478;-82
2022/01/21 05:29:22;;;;;;;729.10;674.17;;;1.40;99.90;;;;;;4979697;28;20470;-82
2022/01/21 05:31:49;;;;;;;732.40;678.60;;;1.50;99.90;;;;;;4982545;28;20458;-82
2022/01/21 05:34:16;;;;;;;733.53;679.33;;;1.50;99.90;;;;;;4982529;28;20490;-82
2022/01/21 05:36:42;;;;;;;731.30;677.47;;;1.40;99.90;;;;;;4983826;28;20457;-82
2022/01/21 05:39:10;;;;;;;736.90;684.07;;;1.50;99.90;;;;;;4975230;28;20467;-82
2022/01/21 05:41:38;;;;;;;732.30;679.30;;;1.40;99.90;;;;;;4981225;28;20522;-82
2022/01/21 05:44:14;;;;;;;729.73;678.27;;;1.50;99.90;;;;;;4979446;28;20502;-82
2022/01/21 05:46:54;;;;;;;736.80;684.50;;;1.50;99.90;;;;;;4979192;28;20549;-82
2022/01/21 05:49:21;;;;;;;743.50;691.60;;;1.40;99.90;;;;;;4976887;28;20510;-82
2022/01/21 05:52:03;;;;;;;746.53;693.10;;;1.30;99.90;;;;;;4984105;28;20455;-82
2022/01/21 05:54:30;;;;;;;744.40;689.77;;;1.30;99.90;;;;;;4986009;28;20465;-82
2022/01/21 05:57:01;;;;;;;740.00;686.03;;;1.20;99.90;;;;;;4984472;28;20452;-81
2022/01/21 05:59:32;;;;;;;741.43;685.90;;;1.30;99.90;;;;;;4983173;28;20483;-81
2022/01/21 06:02:11;;;;;;;743.17;687.17;;;1.10;99.90;;;;;;4983313;28;20459;-82
2022/01/21 06:04:40;;;;;;;744.27;688.80;;;1.20;99.90;;;;;;4984100;28;20545;-82
2022/01/21 06:07:09;;;;;;;732.93;676.60;;;1.20;99.90;;;;;;4983400;28;20466;-81
2022/01/21 06:09:37;;;;;;;741.10;684.30;;;1.10;99.90;;;;;;4979369;28;20467;-81
2022/01/21 06:12:08;;;;;;;734.93;679.20;;;1.10;99.90;;;;;;4976715;28;20454;-81
2022/01/21 06:15:00;;;;;;;742.50;687.00;;;1.10;99.90;;;;;;4980253;28;20491;-81
2022/01/21 06:17:37;;;;;;;746.37;689.90;;;1.10;99.90;;;;;;4983366;28;20455;-82
2022/01/21 06:20:14;;;;;;;747.30;688.83;;;1.00;99.90;;;;;;4979025;28;20500;-82
2022/01/21 06:22:45;;;;;;;733.07;673.13;;;1.10;99.90;;;;;;4976972;28;20466;-81
2022/01/21 06:25:17;;;;;;;734.10;673.67;;;1.00;99.90;;;;;;4977282;28;20530;-81
2022/01/21 06:27:52;;;;;;;733.80;673.90;;;1.00;99.90;;;;;;4978308;28;20483;-81
2022/01/21 06:30:19;;;;;;;740.80;680.87;;;1.00;99.90;;;;;;4976708;28;20550;-82
2022/01/21 06:32:50;;;;;;;723.27;663.97;;;1.00;99.90;;;;;;4977104;28;20458;-82
2022/01/21 06:35:17;;;;;;;726.87;667.17;;;1.10;99.90;;;;;;4974439;28;20483;-81
2022/01/21 06:37:44;;;;;;;723.27;663.47;;;1.00;99.90;;;;;;4975713;28;20481;-81
2022/01/21 06:40:11;;;;;;;728.57;669.20;;;1.00;99.90;;;;;;4977031;28;20475;-82
2022/01/21 06:43:02;;;;;;;721.23;661.10;;;1.10;99.90;;;;;;4975200;28;20455;-81
2022/01/21 06:45:29;;;;;;;735.80;673.60;;;1.20;99.90;;;;;;4976969;28;20461;-81
2022/01/21 06:48:37;;;;;;;;;;;;;;;;;;;;;
2022/01/21 06:51:04;;;;;;;730.60;670.30;;;1.20;99.90;;;;;;4976780;28;20465;-82
2022/01/21 06:53:40;;;;;;;725.17;664.70;;;1.30;99.90;;;;;;4979604;28;20458;-82
2022/01/21 06:56:07;;;;;;;722.50;663.80;;;1.30;99.90;;;;;;4981766;28;20454;-82
2022/01/21 07:09:01;;;;;;;718.23;660.77;;;1.50;99.90;;;;;;4932524;29;20585;-83
2022/01/21 07:18:50;;;;;;;719.20;662.80;;;1.60;99.90;;;;;;4951177;28;20455;-82
2022/01/21 07:36:24;;;;;;;724.10;665.67;;;1.30;99.90;;;;;;4862633;29;20451;-82
2022/01/21 07:39:49;;;;;;;728.00;668.90;;;1.40;99.90;;;;;;4879044;29;20482;-81
2022/01/21 07:50:11;;;;;;;721.33;663.23;;;1.20;99.90;;;;;;4969653;28;20483;-81
2022/01/21 08:03:44;;;;;;;;;;;;;;;;;;;;;
2022/01/21 08:13:34;;;;;;;;;;;;;;;;;;;;;
2022/01/21 08:16:37;;;;;;;;;;;;;;;;;;;;;
2022/01/21 08:23:25;;;;;;;;;;;;;;;;;;;;;
2022/01/21 08:42:26;;;;;;;;;;;;;;;;;;;;;
2022/01/21 08:52:30;;;;;;;706.10;653.40;;;1.80;99.90;;;;;;4846329;29;20892;-80
2022/01/21 09:08:57;;;;;;;718.13;663.17;;;1.90;99.90;;;;;;4995067;28;20542;-83
2022/01/21 10:41:35;;;;;;;352.17;339.17;;;4.70;99.90;;;;;;4830719;29;20546;-82
2022/01/21 10:44:53;;;;;;;;;;;;;;;;;;;;;
2022/01/21 10:50:52;;;;;;;215.87;207.97;;;4.60;99.90;;;;;;4876256;29;20495;-85
2022/01/21 11:00:45;;;;;;;147.27;141.30;;;4.70;99.90;;;;;;4887073;29;20466;-85
2022/01/21 11:20:30;;;;;;;165.10;158.53;;;5.30;99.90;;;;;;4798570;29;20485;-84
2022/01/21 11:23:23;;;;;;;142.70;136.50;;;5.30;99.90;;;;;;4927567;28;20461;-84
2022/01/21 11:26:23;;;;;;;103.87;98.90;;;5.30;99.90;;;;;;4979387;28;20454;-82
2022/01/21 11:39:31;;;;;;;;;;;;;;;;;;;;;
2022/01/21 11:42:56;;;;;;;40.03;36.77;;;5.70;99.90;;;;;;4931105;29;20464;-84
2022/01/21 11:59:41;;;;;;;26.67;24.70;;;5.70;99.90;;;;;;4933289;29;20879;-84
2022/01/21 12:02:59;;;;;;;26.20;23.97;;;5.50;99.90;;;;;;4945055;29;20524;-84
2022/01/21 12:09:31;;;;;;;;;;;;;;;;;;;;;
2022/01/21 13:16:38;;;;;;;;;;;;;;;;;;;;;
2022/01/21 13:20:27;;;;;;;;;;;;;;;;;;;;;
2022/01/21 13:43:37;;;;;;;156.07;149.13;;;5.40;99.90;;;;;;4901582;29;20449;-82
2022/01/21 13:54:22;;;;;;;187.93;181.13;;;5.30;99.90;;;;;;4894261;28;20500;-82
2022/01/21 14:04:24;;;;;;;;;;;;;;;;;;;;;
2022/01/21 14:16:37;;;;;;;557.87;533.50;;;4.90;99.90;;;;;;4977145;28;20518;-82
2022/01/21 14:23:08;;;;;;;686.57;645.43;;;4.80;99.90;;;;;;4940429;29;20461;-82
2022/01/21 14:26:24;;;;;;;692.43;649.97;;;4.80;99.90;;;;;;4959778;28;20526;-82
2022/01/21 14:32:38;;;;;;;708.07;659.27;;;4.80;99.90;;;;;;4874960;29;20518;-82
2022/01/21 14:52:33;;;;;;;687.37;637.87;;;4.90;99.90;;;;;;4916693;29;20536;-83
2022/01/21 15:15:22;;;;;;;703.17;650.07;;;4.80;99.90;;;;;;4767634;29;20460;-83
2022/01/21 15:22:08;;;;;;;696.57;638.87;;;4.90;99.90;;;;;;4790253;29;20603;-83
2022/01/21 15:56:04;;;;;;;;;;;;;;;;;;;;;
2022/01/21 16:26:24;;;;;;;;;;;;;;;;;;;;;
2022/01/21 16:29:08;;;;;;;697.47;639.30;;;5.20;99.90;;;;;;4919178;29;20554;-82
2022/01/21 16:32:08;;;;;;;698.00;639.03;;;5.20;99.90;;;;;;4920657;29;20511;-82
2022/01/21 16:44:02;;;;;;;712.53;653.50;;;5.30;99.90;;;;;;5000990;28;20549;-85
2022/01/21 16:46:52;;;;;;;717.90;658.90;;;5.20;99.90;;;;;;5001990;28;20505;-82
2022/01/21 16:49:41;;;;;;;713.57;655.67;;;5.20;99.90;;;;;;5000962;28;20484;-82
2022/01/21 16:52:41;;;;;;;716.23;658.90;;;5.30;99.90;;;;;;5002857;28;20485;-83
2022/01/21 16:55:25;;;;;;;724.13;668.23;;;5.40;99.90;;;;;;4938525;28;20458;-82
2022/01/21 16:58:01;;;;;;;725.33;671.13;;;5.40;99.90;;;;;;5003621;28;20453;-82
2022/01/21 17:00:37;;;;;;;725.87;672.47;;;5.40;99.90;;;;;;5000216;28;20549;-82
2022/01/21 17:03:36;;;;;;;726.30;673.80;;;5.30;99.90;;;;;;5001407;28;20516;-82
2022/01/21 17:06:04;;;;;;;724.43;671.90;;;5.20;99.90;;;;;;5002110;28;20496;-82
2022/01/21 17:08:38;;;;;;;724.77;673.60;;;5.20;99.90;;;;;;4999825;28;20557;-82
2022/01/21 17:11:12;;;;;;;726.63;675.60;;;5.30;99.90;;;;;;4999930;28;20474;-86
2022/01/21 17:16:25;;;;;;;731.97;682.67;;;5.30;99.90;;;;;;5000507;28;20528;-82
2022/01/21 17:18:52;;;;;;;732.00;684.10;;;5.30;99.90;;;;;;5004465;28;20470;-83
2022/01/21 17:21:19;;;;;;;727.97;683.07;;;5.30;99.90;;;;;;5002573;28;20473;-85
2022/01/21 17:23:46;;;;;;;722.60;676.17;;;5.50;99.90;;;;;;5001366;28;20454;-83
2022/01/21 17:26:24;;;;;;;726.00;679.40;;;5.40;99.90;;;;;;5003867;28;20830;-82
2022/01/21 17:28:51;;;;;;;725.27;678.70;;;5.50;99.90;;;;;;5002867;28;20501;-83
2022/01/21 17:31:18;;;;;;;724.10;678.10;;;5.40;99.90;;;;;;5004386;28;21006;-83
2022/01/21 17:33:45;;;;;;;722.13;676.27;;;5.50;99.90;;;;;;5004341;28;20459;-83
2022/01/21 17:36:11;;;;;;;727.00;680.50;;;5.40;99.90;;;;;;5006568;28;20454;-83
2022/01/21 17:38:38;;;;;;;732.00;684.40;;;5.40;99.90;;;;;;5005235;28;20481;-83
2022/01/21 17:41:05;;;;;;;730.80;683.33;;;5.40;99.90;;;;;;5003551;28;20456;-83
2022/01/21 17:44:01;;;;;;;735.87;687.47;;;5.50;99.90;;;;;;5007385;28;20466;-83
2022/01/21 17:46:31;;;;;;;733.37;685.30;;;5.50;99.90;;;;;;4997516;28;20654;-84
2022/01/21 17:48:59;;;;;;;726.17;679.13;;;5.50;99.90;;;;;;5001841;28;20478;-83
2022/01/21 17:54:27;;;;;;;731.60;684.40;;;5.50;99.90;;;;;;4983691;28;20473;-86
2022/01/21 17:56:54;;;;;;;740.13;693.10;;;5.50;99.90;;;;;;5006704;28;20489;-86
2022/01/21 17:59:26;;;;;;;736.83;688.33;;;5.50;99.90;;;;;;5006737;28;20812;-85
2022/01/21 18:01:53;;;;;;;735.63;687.83;;;5.60;99.90;;;;;;5006833;28;20935;-86
2022/01/21 18:04:19;;;;;;;742.37;694.47;;;5.50;99.90;;;;;;5004538;28;20450;-85
2022/01/21 18:06:52;;;;;;;745.20;697.03;;;5.40;99.90;;;;;;5002045;28;20454;-88
2022/01/21 18:09:31;;;;;;;752.30;704.23;;;5.50;99.90;;;;;;5004575;28;20505;-84
2022/01/21 18:11:59;;;;;;;752.37;703.60;;;5.50;99.90;;;;;;5005538;28;20479;-84
2022/01/21 18:14:28;;;;;;;756.20;707.53;;;5.60;99.90;;;;;;5004953;28;20462;-85
2022/01/21 18:16:57;;;;;;;749.43;699.20;;;5.60;99.90;;;;;;5006625;28;20450;-84
2022/01/21 18:19:35;;;;;;;740.80;690.50;;;5.50;99.90;;;;;;5003859;28;20476;-84
2022/01/21 18:22:03;;;;;;;715.33;663.43;;;5.50;99.90;;;;;;5004265;28;20453;-84
2022/01/21 18:24:30;;;;;;;718.63;664.23;;;5.40;99.90;;;;;;5003577;28;20557;-82
2022/01/21 18:27:00;;;;;;;714.47;659.87;;;5.40;99.90;;;;;;5004377;28;20530;-85
2022/01/21 18:29:29;;;;;;;714.50;658.50;;;5.30;99.90;;;;;;5007117;28;20478;-83
2022/01/21 18:31:56;;;;;;;707.27;651.97;;;5.30;99.90;;;;;;5006665;28;20546;-83
2022/01/21 18:34:23;;;;;;;715.97;655.97;;;5.30;99.90;;;;;;5007975;28;20454;-85
2022/01/21 18:36:50;;;;;;;710.60;651.60;;;5.20;99.90;;;;;;5006007;28;20460;-83
2022/01/21 18:39:17;;;;;;;709.30;649.80;;;5.20;99.90;;;;;;5004362;28;20480;-83
2022/01/21 18:41:47;;;;;;;718.63;660.83;;;5.10;99.90;;;;;;5001956;28;20450;-83
2022/01/21 18:44:15;;;;;;;720.40;662.60;;;5.20;99.90;;;;;;5004828;28;20478;-85
2022/01/21 18:46:46;;;;;;;712.87;654.83;;;5.20;99.90;;;;;;5006114;28;20464;-83
2022/01/21 18:49:15;;;;;;;710.47;655.40;;;5.20;99.90;;;;;;5002404;28;20572;-82
2022/01/21 18:51:42;;;;;;;707.97;653.57;;;5.20;99.90;;;;;;5002110;28;20470;-84
2022/01/21 18:54:09;;;;;;;712.80;661.07;;;5.30;99.90;;;;;;5003911;28;20824;-82
2022/01/21 18:56:36;;;;;;;711.67;659.37;;;5.20;99.90;;;;;;5005261;28;20478;-82
2022/01/21 18:59:03;;;;;;;713.40;662.83;;;5.30;99.90;;;;;;5007483;28;20466;-83
2022/01/21 19:01:34;;;;;;;708.13;657.27;;;5.20;99.90;;;;;;5005973;28;20513;-82
2022/01/21 19:04:04;;;;;;;702.37;653.17;;;5.20;99.90;;;;;;5005246;28;20450;-85
2022/01/21 19:06:35;;;;;;;706.40;656.77;;;5.20;99.90;;;;;;5004990;28;20454;-83
2022/01/21 19:09:07;;;;;;;713.30;661.60;;;5.20;99.90;;;;;;5005926;28;20494;-83
2022/01/21 19:11:35;;;;;;;712.67;662.27;;;5.10;99.90;;;;;;5006945;28;20478;-84
2022/01/21 19:14:01;;;;;;;711.50;660.50;;;5.10;99.90;;;;;;5006004;28;20450;-84
2022/01/21 19:16:28;;;;;;;711.97;663.00;;;5.10;99.90;;;;;;5003598;28;20561;-83
2022/01/21 19:18:55;;;;;;;717.53;667.27;;;5.20;99.90;;;;;;5004990;28;20482;-83
2022/01/21 19:21:28;;;;;;;713.03;664.37;;;5.20;99.90;;;;;;5006383;28;20504;-85
2022/01/21 19:24:06;;;;;;;713.43;665.53;;;5.10;99.90;;;;;;5007411;28;20474;-83
2022/01/21 19:26:49;;;;;;;716.00;667.90;;;5.20;99.90;;;;;;5006213;28;20887;-82
2022/01/21 19:29:16;;;;;;;725.90;679.30;;;5.10;99.90;;;;;;5007307;28;20538;-83
2022/01/21 19:31:43;;;;;;;727.47;680.07;;;5.10;99.90;;;;;;5008638;28;20485;-84
2022/01/21 19:34:09;;;;;;;720.27;674.10;;;5.10;99.90;;;;;;5006136;28;20510;-86
2022/01/21 19:36:38;;;;;;;728.77;681.47;;;5.10;99.90;;;;;;5005627;28;20446;-82
2022/01/21 19:39:06;;;;;;;728.50;681.50;;;5.10;99.90;;;;;;5003310;28;20480;-82
2022/01/21 19:41:33;;;;;;;731.30;684.97;;;5.10;99.90;;;;;;5000608;28;20977;-82
2022/01/21 19:43:59;;;;;;;736.27;688.97;;;5.00;99.90;;;;;;5002536;28;20454;-86
2022/01/21 19:46:28;;;;;;;740.30;691.90;;;5.10;99.90;;;;;;5002525;28;20478;-85
2022/01/21 19:48:55;;;;;;;736.80;689.33;;;5.00;99.90;;;;;;4998230;28;20501;-85
2022/01/21 19:51:22;;;;;;;739.07;689.40;;;5.10;99.90;;;;;;4998967;28;20458;-87
2022/01/21 19:53:51;;;;;;;736.20;686.70;;;5.10;99.90;;;;;;5003203;28;20863;-85
2022/01/21 19:56:23;;;;;;;734.03;683.70;;;5.10;99.90;;;;;;5005926;28;20453;-85
2022/01/21 19:59:04;;;;;;;738.60;687.10;;;5.10;99.90;;;;;;5004749;28;20474;-85
2022/01/21 20:08:08;;;;;;;734.83;683.57;;;5.00;99.90;;;;;;5003481;28;21006;-85
2022/01/21 20:10:15;;;;;;;734.47;682.40;;;5.00;99.90;;;;;;5003736;28;20441;-85
2022/01/21 20:12:47;;;;;;;729.00;677.77;;;5.00;99.90;;;;;;5003234;28;20470;-85
2022/01/21 20:15:19;;;;;;;730.63;680.63;;;5.00;99.90;;;;;;5002332;28;20458;-84
2022/01/21 20:17:46;;;;;;;728.27;679.03;;;5.10;99.90;;;;;;5001720;28;20549;-85
2022/01/21 20:20:14;;;;;;;732.70;682.07;;;5.10;99.90;;;;;;5002652;28;20484;-85
2022/01/21 20:22:42;;;;;;;728.57;677.77;;;5.10;99.90;;;;;;5004482;28;20454;-85
2022/01/21 20:25:11;;;;;;;727.30;675.83;;;5.10;99.90;;;;;;5003537;28;20466;-86
2022/01/21 20:27:39;;;;;;;731.67;680.20;;;5.00;99.90;;;;;;5003143;28;20454;-86
2022/01/21 20:30:08;;;;;;;726.50;677.60;;;5.00;99.90;;;;;;5003151;28;20478;-85
2022/01/21 20:32:38;;;;;;;736.53;686.57;;;4.90;99.90;;;;;;5004051;28;20509;-85
2022/01/21 20:35:10;;;;;;;740.10;690.53;;;4.90;99.90;;;;;;5002492;28;20513;-85
2022/01/21 20:37:40;;;;;;;738.23;688.13;;;4.90;99.90;;;;;;5003857;28;20446;-86
2022/01/21 20:40:27;;;;;;;742.63;692.43;;;5.00;99.90;;;;;;5002331;28;20471;-85
2022/01/21 20:42:57;;;;;;;741.37;691.80;;;5.00;99.90;;;;;;5004415;28;20457;-85
2022/01/21 20:45:26;;;;;;;746.00;697.37;;;5.00;99.90;;;;;;5003431;28;20450;-86
2022/01/21 20:47:53;;;;;;;745.00;695.70;;;4.90;99.90;;;;;;5004660;28;20454;-86
2022/01/21 20:50:21;;;;;;;740.07;691.50;;;4.90;99.90;;;;;;5002247;28;20451;-84
2022/01/21 20:52:48;;;;;;;739.63;692.20;;;5.00;99.90;;;;;;5002637;28;20569;-86
2022/01/21 20:55:15;;;;;;;714.33;671.47;;;5.00;99.90;;;;;;5002216;28;20459;-85
2022/01/21 20:57:42;;;;;;;722.20;679.03;;;4.90;99.90;;;;;;5001623;28;20484;-85
2022/01/21 21:00:12;;;;;;;714.47;673.10;;;4.90;99.90;;;;;;5003035;28;20468;-85
2022/01/21 21:02:40;;;;;;;726.33;681.87;;;4.90;99.90;;;;;;5005894;28;20454;-83
2022/01/21 21:05:07;;;;;;;727.73;683.37;;;5.00;99.90;;;;;;5003241;28;20479;-83
2022/01/21 21:07:34;;;;;;;720.87;679.67;;;4.90;99.90;;;;;;5005036;28;20840;-85
2022/01/21 21:10:01;;;;;;;702.10;663.57;;;4.80;99.90;;;;;;5005559;28;20547;-82
2022/01/21 21:12:28;;;;;;;700.57;661.83;;;4.90;99.90;;;;;;5006458;28;20505;-83
2022/01/21 21:14:58;;;;;;;699.10;660.20;;;4.90;99.90;;;;;;5003693;28;20908;-85
2022/01/21 21:17:45;;;;;;;684.93;647.90;;;4.90;99.90;;;;;;5001889;28;20465;-84
2022/01/21 21:25:50;;;;;;;692.03;652.17;;;4.80;99.90;;;;;;5005381;28;20442;-83
2022/01/21 21:28:23;;;;;;;685.93;646.40;;;4.80;99.90;;;;;;5002940;28;20530;-83
2022/01/21 21:31:18;;;;;;;693.30;651.70;;;4.80;99.90;;;;;;5001092;28;20454;-83
2022/01/21 22:03:06;;;;;;;726.90;680.97;;;4.50;99.90;;;;;;5002498;28;20437;-83
2022/01/21 22:13:05;;;;;;;721.50;667.70;;;4.30;99.90;;;;;;5004058;28;20532;-84
2022/01/21 22:48:50;;;;;;;758.53;708.57;;;4.50;99.90;;;;;;5002481;28;20549;-83
2022/01/21 22:59:53;;;;;;;754.00;706.00;;;4.50;99.90;;;;;;5002857;28;20460;-82
2022/01/21 23:02:22;;;;;;;742.73;696.93;;;4.40;99.90;;;;;;5002089;28;20499;-83
2022/01/21 23:04:50;;;;;;;739.57;693.40;;;4.50;99.90;;;;;;5002379;28;20546;-83
2022/01/21 23:07:18;;;;;;;743.40;696.03;;;4.50;99.90;;;;;;5001907;28;20461;-85
2022/01/21 23:09:45;;;;;;;741.27;694.77;;;4.50;99.90;;;;;;5002770;28;20517;-84
2022/01/21 23:12:13;;;;;;;745.27;696.87;;;4.50;99.90;;;;;;5002030;28;20911;-83
2022/01/21 23:14:40;;;;;;;758.63;710.43;;;4.50;99.90;;;;;;5002832;28;20467;-82
2022/01/21 23:17:08;;;;;;;759.83;708.80;;;4.50;99.90;;;;;;4999794;28;20460;-85
2022/01/21 23:19:34;;;;;;;753.63;706.17;;;4.50;99.90;;;;;;5002427;28;20485;-83
2022/01/21 23:22:01;;;;;;;755.83;706.27;;;4.50;99.90;;;;;;5002062;28;20450;-83
2022/01/21 23:24:28;;;;;;;762.00;712.50;;;4.50;99.90;;;;;;5002040;28;20474;-82
2022/01/21 23:26:57;;;;;;;761.17;711.13;;;4.40;99.90;;;;;;5003992;28;20458;-85
2022/01/21 23:29:26;;;;;;;757.70;708.47;;;4.50;99.90;;;;;;5005473;28;20478;-82
2022/01/21 23:31:54;;;;;;;751.87;704.20;;;4.50;99.90;;;;;;5008576;28;20445;-83
2022/01/21 23:34:28;;;;;;;757.30;707.87;;;4.60;99.90;;;;;;5006799;28;20482;-82
2022/01/21 23:37:00;;;;;;;754.60;706.00;;;4.50;99.90;;;;;;5006830;28;20454;-83
2022/01/21 23:39:43;;;;;;;751.17;704.27;;;4.50;99.90;;;;;;5006140;28;21050;-83
2022/01/21 23:42:13;;;;;;;756.07;708.60;;;4.50;99.90;;;;;;5007097;28;20473;-84
2022/01/21 23:44:43;;;;;;;755.73;706.23;;;4.60;99.90;;;;;;5009199;28;20442;-83
2022/01/21 23:47:14;;;;;;;754.57;706.33;;;4.50;99.90;;;;;;5008538;28;20462;-83
2022/01/21 23:49:43;;;;;;;738.53;691.60;;;4.50;99.90;;;;;;5006528;28;20478;-83
2022/01/21 23:52:12;;;;;;;742.20;696.00;;;4.60;99.90;;;;;;5006508;28;20839;-82
2022/01/21 23:54:39;;;;;;;751.27;703.67;;;4.50;99.90;;;;;;5008683;28;20457;-85
2022/01/21 23:57:07;;;;;;;750.77;703.80;;;4.50;99.90;;;;;;5007669;28;20454;-82
2022/01/21 23:59:36;;;;;;;731.77;686.70;;;4.60;99.90;;;;;;5007334;28;20477;-82
